Time;durP1;ratioP1;P1;durP2;ratioP2;P2;SDS_P1;SDS_P2;PMS_P1;PMS_P2;Temp;Humidity;BMP_temperature;BMP_pressure;BME280_temperature;BME280_humidity;BME280_pressure;Samples;Min_cycle;Max_cycle;Signal;HPM_P1;HPM_P2
2024/03/17 00:00:18;;;;;;;9.25;5.90;;;9.70;99.90;;;;;;5090873;28;20585;-77
2024/03/17 00:02:53;;;;;;;8.65;7.22;;;9.70;99.90;;;;;;5090465;28;20211;-77
2024/03/17 00:05:19;;;;;;;5.50;4.90;;;9.70;99.90;;;;;;5091767;28;20528;-79
2024/03/17 00:07:45;;;;;;;10.70;7.03;;;9.70;99.90;;;;;;5084475;28;20169;-79
2024/03/17 00:10:11;;;;;;;7.37;6.63;;;9.70;99.90;;;;;;5088817;28;20246;-79
2024/03/17 00:12:37;;;;;;;7.33;4.80;;;9.60;99.90;;;;;;5089771;28;20293;-78
2024/03/17 00:15:04;;;;;;;9.50;5.72;;;9.70;99.90;;;;;;5090747;28;20194;-78
2024/03/17 00:17:30;;;;;;;6.78;5.40;;;9.70;99.90;;;;;;5090576;28;20175;-79
2024/03/17 00:19:56;;;;;;;7.22;5.43;;;9.60;99.90;;;;;;5089332;28;20676;-79
2024/03/17 00:22:22;;;;;;;7.68;5.88;;;9.70;99.90;;;;;;5089247;28;20202;-79
2024/03/17 00:24:48;;;;;;;7.63;5.57;;;9.60;99.90;;;;;;5074769;28;20172;-76
2024/03/17 00:27:13;;;;;;;6.53;5.87;;;9.60;99.90;;;;;;5073775;28;20704;-76
2024/03/17 00:29:39;;;;;;;9.83;5.83;;;9.60;99.90;;;;;;5067900;28;20555;-79
2024/03/17 00:32:06;;;;;;;9.20;7.00;;;9.60;99.90;;;;;;5083628;28;20626;-75
2024/03/17 00:34:32;;;;;;;8.15;6.10;;;9.60;99.90;;;;;;5093774;28;20190;-76
2024/03/17 00:36:59;;;;;;;6.57;5.80;;;9.60;99.90;;;;;;5084446;28;20177;-78
2024/03/17 00:39:25;;;;;;;5.68;5.10;;;9.50;99.90;;;;;;5092047;28;20643;-78
2024/03/17 00:41:51;;;;;;;6.07;5.45;;;9.50;99.90;;;;;;5092813;28;20596;-76
2024/03/17 00:44:16;;;;;;;9.80;6.30;;;9.50;99.90;;;;;;5075333;28;20207;-76
2024/03/17 00:46:42;;;;;;;9.63;7.33;;;9.50;99.90;;;;;;5093603;28;20221;-76
2024/03/17 00:49:10;;;;;;;10.27;6.77;;;9.50;99.90;;;;;;5093382;28;20187;-77
2024/03/17 00:51:36;;;;;;;9.43;7.18;;;9.40;99.90;;;;;;5072537;28;20344;-77
2024/03/17 00:54:02;;;;;;;8.90;6.40;;;9.40;99.90;;;;;;5066221;22;20233;-79
2024/03/17 00:56:27;;;;;;;11.00;7.40;;;9.40;99.90;;;;;;5039751;28;20183;-78
2024/03/17 00:58:53;;;;;;;8.10;6.67;;;9.40;99.90;;;;;;5035688;28;20580;-78
2024/03/17 01:01:19;;;;;;;7.90;7.07;;;9.40;99.90;;;;;;5031697;28;20540;-77
2024/03/17 01:03:45;;;;;;;11.87;8.07;;;9.40;99.90;;;;;;5024475;28;20252;-77
2024/03/17 01:06:11;;;;;;;9.20;7.18;;;9.40;99.90;;;;;;5038051;28;20174;-77
2024/03/17 01:08:37;;;;;;;6.47;5.60;;;9.40;99.90;;;;;;5048693;28;20181;-78
2024/03/17 01:11:03;;;;;;;9.53;6.97;;;9.40;99.90;;;;;;5016842;28;20189;-78
2024/03/17 01:13:28;;;;;;;9.20;7.27;;;9.40;99.90;;;;;;5027569;28;20648;-78
2024/03/17 01:15:54;;;;;;;10.20;6.60;;;9.40;99.90;;;;;;5011799;28;20592;-78
2024/03/17 01:18:20;;;;;;;12.30;6.47;;;9.30;99.90;;;;;;5021446;28;20218;-78
2024/03/17 01:20:46;;;;;;;7.87;5.50;;;9.30;99.90;;;;;;5015596;28;20628;-78
2024/03/17 01:23:13;;;;;;;6.77;5.13;;;9.30;99.90;;;;;;5030597;28;20278;-78
2024/03/17 01:25:38;;;;;;;13.57;6.72;;;9.30;99.90;;;;;;5035228;28;21233;-78
2024/03/17 01:28:04;;;;;;;8.43;5.73;;;9.30;99.90;;;;;;5011798;28;20179;-78
2024/03/17 01:30:32;;;;;;;6.50;5.40;;;9.30;99.90;;;;;;4998955;28;20231;-78
2024/03/17 01:32:59;;;;;;;9.43;6.35;;;9.30;99.90;;;;;;5019108;28;20241;-78
2024/03/17 01:35:25;;;;;;;8.68;6.97;;;9.20;99.90;;;;;;5011260;28;20633;-78
2024/03/17 01:37:51;;;;;;;8.45;6.65;;;9.20;99.90;;;;;;5011305;28;20194;-78
2024/03/17 01:40:17;;;;;;;10.60;6.30;;;9.20;99.90;;;;;;5021061;28;20209;-78
2024/03/17 01:42:43;;;;;;;8.83;6.60;;;9.20;99.90;;;;;;5012105;28;20194;-78
2024/03/17 01:45:23;;;;;;;8.57;6.23;;;9.10;99.90;;;;;;5011441;28;20201;-77
2024/03/17 01:47:49;;;;;;;8.75;6.18;;;9.10;99.90;;;;;;5012751;28;20581;-77
2024/03/17 01:50:18;;;;;;;8.03;5.40;;;9.10;99.90;;;;;;5012511;28;20185;-77
2024/03/17 01:52:46;;;;;;;9.15;6.70;;;9.10;99.90;;;;;;5015793;28;20593;-77
2024/03/17 01:55:12;;;;;;;6.43;5.30;;;9.10;99.90;;;;;;5014634;28;20228;-77
2024/03/17 01:57:40;;;;;;;6.57;5.70;;;9.10;99.90;;;;;;5013128;28;20186;-77
2024/03/17 02:00:08;;;;;;;6.55;5.45;;;9.00;99.90;;;;;;5011672;28;20597;-77
2024/03/17 02:02:35;;;;;;;8.30;5.50;;;9.00;99.90;;;;;;5023898;28;20253;-77
2024/03/17 02:05:02;;;;;;;6.28;5.40;;;8.90;99.90;;;;;;5018073;28;20202;-77
2024/03/17 02:07:28;;;;;;;9.63;5.72;;;8.90;99.90;;;;;;5027652;28;20174;-77
2024/03/17 02:09:56;;;;;;;7.30;6.00;;;8.90;99.90;;;;;;5031342;28;20276;-76
2024/03/17 02:12:23;;;;;;;8.57;5.55;;;8.90;99.90;;;;;;5012952;28;20182;-79
2024/03/17 02:14:49;;;;;;;6.28;4.80;;;8.90;99.90;;;;;;5025279;28;20194;-79
2024/03/17 02:17:14;;;;;;;9.63;5.40;;;8.90;99.90;;;;;;5015496;28;20185;-79
2024/03/17 02:19:40;;;;;;;6.97;5.30;;;8.90;99.90;;;;;;5009997;28;20173;-79
2024/03/17 02:22:14;;;;;;;7.20;5.63;;;8.90;99.90;;;;;;5010141;28;20587;-79
2024/03/17 02:24:40;;;;;;;5.95;4.97;;;8.80;99.90;;;;;;4999024;28;20729;-79
2024/03/17 02:27:06;;;;;;;6.80;4.38;;;8.80;99.90;;;;;;5047651;28;20208;-79
2024/03/17 02:29:32;;;;;;;8.60;5.63;;;8.80;99.90;;;;;;5020388;28;20201;-79
2024/03/17 02:31:58;;;;;;;5.97;4.60;;;8.80;99.90;;;;;;5017019;28;20177;-79
2024/03/17 02:34:23;;;;;;;5.33;4.00;;;8.70;99.90;;;;;;5031230;28;20714;-78
2024/03/17 02:36:49;;;;;;;5.87;4.60;;;8.70;99.90;;;;;;5038396;28;20173;-79
2024/03/17 02:42:05;;;;;;;6.15;4.30;;;8.70;99.90;;;;;;4993991;28;20178;-79
2024/03/17 02:44:32;;;;;;;8.23;5.35;;;8.60;99.90;;;;;;5002157;28;20284;-79
2024/03/17 02:46:59;;;;;;;8.95;5.30;;;8.60;99.90;;;;;;5013812;28;20208;-78
2024/03/17 02:49:35;;;;;;;6.82;5.82;;;8.60;99.90;;;;;;5027749;28;20174;-79
2024/03/17 02:52:01;;;;;;;8.60;6.07;;;8.60;99.90;;;;;;4997501;28;20181;-78
2024/03/17 02:54:27;;;;;;;8.52;6.07;;;8.50;99.90;;;;;;5027377;28;20213;-78
2024/03/17 02:56:55;;;;;;;7.73;6.90;;;8.50;99.90;;;;;;5042270;28;20639;-78
2024/03/17 02:59:21;;;;;;;11.25;6.03;;;8.50;99.90;;;;;;5023168;28;20173;-78
2024/03/17 03:01:47;;;;;;;9.40;5.93;;;8.40;99.90;;;;;;5043436;28;20176;-78
2024/03/17 03:04:12;;;;;;;7.97;5.87;;;8.40;99.90;;;;;;5012668;28;20684;-78
2024/03/17 03:06:38;;;;;;;7.57;5.73;;;8.40;99.90;;;;;;5021734;28;20237;-79
2024/03/17 03:09:13;;;;;;;5.93;4.80;;;8.40;99.90;;;;;;5021930;28;20186;-78
2024/03/17 03:11:40;;;;;;;8.50;6.25;;;8.40;99.90;;;;;;5023643;28;20177;-78
2024/03/17 03:14:07;;;;;;;8.13;6.80;;;8.40;99.90;;;;;;5005585;28;20280;-78
2024/03/17 03:16:33;;;;;;;6.68;5.70;;;8.40;99.90;;;;;;5022475;28;20303;-78
2024/03/17 03:18:59;;;;;;;8.03;5.73;;;8.30;99.90;;;;;;5031535;28;20193;-79
2024/03/17 03:21:25;;;;;;;7.95;6.40;;;8.30;99.90;;;;;;5028686;28;20592;-79
2024/03/17 03:23:51;;;;;;;9.45;6.55;;;8.30;99.90;;;;;;5002460;28;20201;-79
2024/03/17 03:26:18;;;;;;;11.52;6.38;;;8.30;99.90;;;;;;5022772;28;20495;-79
2024/03/17 03:28:44;;;;;;;6.88;5.93;;;8.30;99.90;;;;;;5021331;28;20177;-79
2024/03/17 03:31:13;;;;;;;7.35;5.40;;;8.20;99.90;;;;;;5021267;28;20600;-78
2024/03/17 03:33:42;;;;;;;6.18;4.70;;;8.20;99.90;;;;;;5025524;28;20202;-79
2024/03/17 03:36:10;;;;;;;7.88;5.65;;;8.20;99.90;;;;;;5025981;28;20260;-78
2024/03/17 03:38:36;;;;;;;7.75;5.60;;;8.10;99.90;;;;;;5025943;28;20182;-78
2024/03/17 03:41:14;;;;;;;7.80;5.30;;;8.20;99.90;;;;;;5016312;28;20229;-78
2024/03/17 03:43:39;;;;;;;6.65;5.70;;;8.10;99.90;;;;;;5017969;28;20210;-78
2024/03/17 03:46:07;;;;;;;7.23;5.57;;;8.10;99.90;;;;;;5026119;28;20726;-78
2024/03/17 03:48:34;;;;;;;5.75;4.55;;;8.10;99.90;;;;;;5017018;28;20936;-78
2024/03/17 03:51:06;;;;;;;5.45;4.45;;;8.00;99.90;;;;;;5016981;28;20188;-78
2024/03/17 03:53:33;;;;;;;8.23;6.70;;;8.00;99.90;;;;;;5012568;28;20213;-78
2024/03/17 03:56:01;;;;;;;6.57;5.00;;;8.00;99.90;;;;;;5020673;28;20655;-78
2024/03/17 03:58:28;;;;;;;6.05;5.10;;;8.00;99.90;;;;;;5020698;28;20702;-78
2024/03/17 04:00:56;;;;;;;5.22;4.43;;;8.00;99.90;;;;;;5039321;28;20182;-78
2024/03/17 04:03:22;;;;;;;8.20;5.65;;;8.00;99.90;;;;;;5012981;28;20271;-79
2024/03/17 04:05:48;;;;;;;6.90;4.93;;;7.90;99.90;;;;;;5018215;28;20184;-79
2024/03/17 04:08:13;;;;;;;7.33;5.43;;;7.90;99.90;;;;;;5016654;28;20174;-79
2024/03/17 04:10:39;;;;;;;6.03;4.73;;;7.90;99.90;;;;;;5030876;28;20636;-79
2024/03/17 04:13:05;;;;;;;7.80;5.50;;;7.90;99.90;;;;;;5012792;28;20178;-80
2024/03/17 04:15:31;;;;;;;7.87;4.93;;;7.90;99.90;;;;;;5024528;28;20523;-80
2024/03/17 04:17:56;;;;;;;7.30;4.80;;;7.90;99.90;;;;;;5034556;28;20656;-79
2024/03/17 04:20:22;;;;;;;5.40;4.53;;;7.90;99.90;;;;;;5034227;28;20181;-78
2024/03/17 04:22:48;;;;;;;5.47;4.93;;;7.90;99.90;;;;;;5015753;28;20255;-79
2024/03/17 04:25:14;;;;;;;5.60;4.30;;;7.90;99.90;;;;;;5024759;28;20285;-78
2024/03/17 04:27:40;;;;;;;7.40;5.07;;;7.80;99.90;;;;;;5024745;28;20409;-78
2024/03/17 04:30:07;;;;;;;5.68;5.07;;;7.90;99.90;;;;;;5049304;28;20772;-77
2024/03/17 04:32:33;;;;;;;6.18;5.10;;;7.90;99.90;;;;;;5033501;28;20181;-78
2024/03/17 04:34:59;;;;;;;6.60;4.70;;;7.90;99.90;;;;;;5016046;28;20205;-78
2024/03/17 04:37:25;;;;;;;8.07;5.57;;;7.90;99.90;;;;;;5038968;28;20229;-79
2024/03/17 04:39:51;;;;;;;5.38;4.70;;;7.90;99.90;;;;;;5027677;28;20190;-78
2024/03/17 04:42:17;;;;;;;5.00;4.47;;;8.00;99.90;;;;;;5013790;28;20205;-78
2024/03/17 04:44:44;;;;;;;6.72;5.80;;;8.00;99.90;;;;;;5032886;28;20251;-78
2024/03/17 04:47:11;;;;;;;6.72;5.15;;;8.00;99.90;;;;;;5032807;28;20234;-78
2024/03/17 04:49:37;;;;;;;7.15;5.00;;;8.10;99.90;;;;;;5039595;28;20197;-78
2024/03/17 04:52:04;;;;;;;8.25;4.85;;;8.10;99.90;;;;;;5010448;28;20170;-79
2024/03/17 04:54:31;;;;;;;5.63;4.95;;;8.10;99.90;;;;;;5028258;28;20228;-78
2024/03/17 04:56:57;;;;;;;8.27;5.72;;;8.10;99.90;;;;;;5034509;28;20177;-78
2024/03/17 04:59:22;;;;;;;6.93;5.50;;;8.10;99.90;;;;;;5032046;28;20178;-78
2024/03/17 05:01:48;;;;;;;9.13;6.23;;;8.10;99.90;;;;;;5042133;28;20166;-78
2024/03/17 05:04:15;;;;;;;7.60;5.20;;;8.10;99.90;;;;;;5024138;28;20586;-78
2024/03/17 05:06:47;;;;;;;6.03;5.00;;;8.20;99.90;;;;;;5030959;28;21141;-78
2024/03/17 05:09:13;;;;;;;7.85;4.97;;;8.10;99.90;;;;;;5038225;28;20169;-79
2024/03/17 05:11:39;;;;;;;8.68;5.90;;;8.10;99.90;;;;;;5025088;28;20249;-78
2024/03/17 05:14:05;;;;;;;5.28;4.78;;;8.10;99.90;;;;;;5040766;28;20243;-78
2024/03/17 05:16:31;;;;;;;5.70;4.03;;;8.10;99.90;;;;;;5035765;28;20185;-78
2024/03/17 05:18:57;;;;;;;7.97;5.50;;;8.10;99.90;;;;;;5045879;28;20594;-78
2024/03/17 05:21:23;;;;;;;7.80;5.93;;;8.10;99.90;;;;;;5034109;28;20193;-78
2024/03/17 05:23:49;;;;;;;6.30;4.95;;;8.00;99.90;;;;;;5028661;28;20216;-78
2024/03/17 05:26:15;;;;;;;6.67;4.30;;;8.00;99.90;;;;;;5019581;28;20171;-78
2024/03/17 05:28:41;;;;;;;7.70;5.43;;;8.00;99.90;;;;;;5028272;28;20581;-78
2024/03/17 05:31:06;;;;;;;6.77;5.30;;;7.90;99.90;;;;;;5034842;28;20277;-78
2024/03/17 05:33:32;;;;;;;6.63;5.40;;;7.90;99.90;;;;;;5013831;28;20201;-78
2024/03/17 05:36:02;;;;;;;5.77;5.17;;;7.90;99.90;;;;;;5026956;28;20228;-79
2024/03/17 05:38:29;;;;;;;7.53;5.32;;;7.90;99.90;;;;;;5054866;28;20181;-78
2024/03/17 05:41:08;;;;;;;10.70;4.50;;;7.90;99.90;;;;;;5033379;28;20221;-78
2024/03/17 05:43:37;;;;;;;7.55;4.53;;;7.90;99.90;;;;;;5006500;28;20206;-79
2024/03/17 05:46:08;;;;;;;5.20;4.60;;;7.90;99.90;;;;;;5032644;28;20634;-79
2024/03/17 05:48:37;;;;;;;6.75;5.03;;;7.90;99.90;;;;;;5054031;28;20268;-79
2024/03/17 05:51:10;;;;;;;6.55;4.30;;;7.90;99.90;;;;;;5028900;28;20603;-79
2024/03/17 05:53:39;;;;;;;5.35;3.42;;;7.90;99.90;;;;;;5033427;28;20657;-79
2024/03/17 05:56:11;;;;;;;6.80;5.57;;;7.90;99.90;;;;;;5032520;28;20185;-79
2024/03/17 05:58:37;;;;;;;5.30;4.20;;;7.90;99.90;;;;;;5033452;28;20213;-79
2024/03/17 06:01:03;;;;;;;6.78;4.40;;;7.90;99.90;;;;;;5038024;28;20178;-79
2024/03/17 06:03:29;;;;;;;6.45;5.70;;;7.90;99.90;;;;;;5028209;28;20205;-79
2024/03/17 06:05:55;;;;;;;6.67;4.70;;;7.90;99.90;;;;;;5031181;28;20714;-78
2024/03/17 06:08:21;;;;;;;6.47;4.60;;;7.90;99.90;;;;;;5031068;28;21161;-79
2024/03/17 06:10:50;;;;;;;5.63;4.90;;;7.90;99.90;;;;;;5030435;28;20676;-79
2024/03/17 06:13:16;;;;;;;5.78;4.45;;;7.90;99.90;;;;;;5030017;28;20643;-80
2024/03/17 06:15:43;;;;;;;6.88;4.40;;;7.90;99.90;;;;;;5029052;28;20181;-79
2024/03/17 06:18:12;;;;;;;6.28;3.90;;;7.90;99.90;;;;;;5026774;28;20174;-78
2024/03/17 06:20:42;;;;;;;5.85;4.18;;;7.90;99.90;;;;;;5022262;28;20181;-79
2024/03/17 06:23:08;;;;;;;5.38;4.22;;;7.90;99.90;;;;;;5031889;28;20209;-79
2024/03/17 06:25:39;;;;;;;5.32;3.83;;;7.90;99.90;;;;;;5014633;28;20182;-79
2024/03/17 06:28:05;;;;;;;11.75;4.30;;;7.90;99.90;;;;;;5021523;28;20652;-79
2024/03/17 06:30:31;;;;;;;4.93;3.85;;;7.90;99.90;;;;;;5015809;28;20240;-79
2024/03/17 06:32:57;;;;;;;5.25;4.10;;;8.00;99.90;;;;;;5023209;28;20189;-79
2024/03/17 06:35:26;;;;;;;8.30;5.20;;;8.00;99.90;;;;;;5013727;28;20188;-79
2024/03/17 06:37:52;;;;;;;7.38;5.43;;;8.00;99.90;;;;;;5022901;28;20277;-79
2024/03/17 06:40:18;;;;;;;8.45;5.38;;;8.10;99.90;;;;;;5013916;28;20181;-79
2024/03/17 06:42:47;;;;;;;8.18;6.07;;;8.10;99.90;;;;;;5022750;28;20216;-79
2024/03/17 06:45:13;;;;;;;6.45;4.32;;;8.10;99.90;;;;;;5031443;28;20206;-79
2024/03/17 06:47:39;;;;;;;7.57;5.00;;;8.20;99.90;;;;;;5027801;28;20181;-79
2024/03/17 06:50:06;;;;;;;5.95;4.45;;;8.20;99.90;;;;;;5008382;28;20184;-79
2024/03/17 06:52:33;;;;;;;4.90;4.47;;;8.30;99.90;;;;;;5029373;28;20178;-78
2024/03/17 06:55:00;;;;;;;8.53;5.90;;;8.30;99.90;;;;;;5024295;28;20574;-78
2024/03/17 06:57:26;;;;;;;7.50;5.22;;;8.30;99.90;;;;;;5029374;28;20648;-78
2024/03/17 06:59:52;;;;;;;5.07;4.53;;;8.30;99.90;;;;;;5022514;28;20223;-78
2024/03/17 07:02:19;;;;;;;6.83;4.77;;;8.40;99.90;;;;;;5029321;28;20171;-78
2024/03/17 07:04:46;;;;;;;7.05;4.70;;;8.50;99.90;;;;;;5030712;28;20213;-78
2024/03/17 07:07:13;;;;;;;5.43;4.40;;;8.50;99.90;;;;;;5034744;28;20231;-78
2024/03/17 07:09:42;;;;;;;6.40;4.75;;;8.60;99.90;;;;;;5046200;28;20177;-79
2024/03/17 07:12:08;;;;;;;7.70;5.20;;;8.60;99.90;;;;;;5023375;28;20209;-79
2024/03/17 07:14:34;;;;;;;6.88;4.22;;;8.60;99.90;;;;;;5021226;28;20355;-79
2024/03/17 07:17:00;;;;;;;6.32;4.30;;;8.70;99.90;;;;;;5007156;28;20192;-79
2024/03/17 07:19:27;;;;;;;6.70;5.38;;;8.80;99.90;;;;;;5028627;28;20221;-79
2024/03/17 07:21:54;;;;;;;6.20;5.07;;;8.80;99.90;;;;;;5046141;28;20247;-78
2024/03/17 07:24:19;;;;;;;7.15;3.70;;;9.00;99.90;;;;;;5032760;28;21042;-78
2024/03/17 07:26:47;;;;;;;6.87;4.50;;;9.00;99.90;;;;;;5019539;28;20178;-79
2024/03/17 07:29:13;;;;;;;6.88;5.05;;;9.10;99.90;;;;;;5036285;28;20595;-79
2024/03/17 07:31:38;;;;;;;7.60;5.10;;;9.20;99.90;;;;;;4998367;28;20572;-78
2024/03/17 07:34:04;;;;;;;4.80;4.00;;;9.40;99.90;;;;;;5039224;28;20253;-79
2024/03/17 07:36:30;;;;;;;9.57;4.90;;;9.50;99.90;;;;;;5026563;28;20185;-80
2024/03/17 07:38:56;;;;;;;4.67;4.17;;;9.60;99.90;;;;;;5011045;28;20182;-80
2024/03/17 07:41:24;;;;;;;6.80;4.25;;;9.80;99.90;;;;;;5028867;28;20251;-79
2024/03/17 07:43:49;;;;;;;6.30;4.95;;;10.20;99.90;;;;;;5034092;28;20212;-79
2024/03/17 07:46:16;;;;;;;5.85;5.20;;;10.70;99.90;;;;;;5029479;28;20201;-80
2024/03/17 07:48:44;;;;;;;5.13;4.17;;;11.30;99.90;;;;;;5026798;28;20177;-79
2024/03/17 07:51:12;;;;;;;4.67;4.13;;;11.90;99.90;;;;;;5009432;28;20643;-80
2024/03/17 07:53:39;;;;;;;5.00;3.87;;;12.60;99.90;;;;;;5024682;28;21044;-79
2024/03/17 07:56:09;;;;;;;5.03;3.20;;;13.30;99.90;;;;;;5027878;28;20596;-80
2024/03/17 07:58:37;;;;;;;5.60;3.37;;;13.60;99.90;;;;;;5023902;28;20631;-80
2024/03/17 08:01:05;;;;;;;3.40;2.90;;;14.10;99.90;;;;;;5021443;28;20612;-79
2024/03/17 08:03:33;;;;;;;5.03;3.00;;;14.40;99.90;;;;;;5015478;28;20649;-80
2024/03/17 08:06:00;;;;;;;3.60;3.00;;;14.70;99.90;;;;;;5023120;28;20933;-80
2024/03/17 08:08:27;;;;;;;2.93;2.70;;;15.00;99.90;;;;;;5023366;28;20588;-80
2024/03/17 08:10:53;;;;;;;4.40;2.87;;;15.40;99.90;;;;;;5025336;28;20597;-81
2024/03/17 08:13:19;;;;;;;3.13;2.23;;;15.90;99.90;;;;;;5017234;28;20988;-81
2024/03/17 08:16:14;;;;;;;6.70;3.23;;;16.20;99.90;;;;;;5043044;28;20592;-82
2024/03/17 08:18:40;;;;;;;5.30;2.90;;;16.50;99.90;;;;;;4992964;28;20620;-81
2024/03/17 08:21:06;;;;;;;4.80;1.97;;;16.80;99.90;;;;;;5026980;28;20600;-80
2024/03/17 08:23:41;;;;;;;4.00;2.70;;;16.90;99.90;;;;;;5020711;28;20652;-80
2024/03/17 08:26:08;;;;;;;3.30;2.47;;;17.30;99.90;;;;;;5023257;28;20194;-79
2024/03/17 08:28:34;;;;;;;3.97;2.53;;;17.40;99.90;;;;;;5017181;28;20585;-79
2024/03/17 08:31:01;;;;;;;4.17;2.40;;;17.40;99.90;;;;;;5019635;28;20990;-79
2024/03/17 08:33:28;;;;;;;5.03;2.90;;;17.20;99.90;;;;;;5015220;28;20714;-79
2024/03/17 08:36:03;;;;;;;4.10;2.30;;;17.10;99.90;;;;;;5037176;28;20592;-80
2024/03/17 08:38:31;;;;;;;3.50;2.57;;;16.80;99.90;;;;;;5020263;28;20599;-81
2024/03/17 08:40:58;;;;;;;2.80;2.30;;;16.50;99.90;;;;;;5003586;28;20592;-80
2024/03/17 08:43:24;;;;;;;4.10;3.07;;;16.80;99.90;;;;;;4996434;28;20719;-80
2024/03/17 08:46:02;;;;;;;4.90;3.17;;;17.10;99.90;;;;;;5028913;28;20620;-81
2024/03/17 08:48:28;;;;;;;4.10;2.67;;;17.10;99.90;;;;;;5023950;28;20922;-80
2024/03/17 08:50:55;;;;;;;3.50;2.87;;;17.10;99.90;;;;;;5013698;28;21111;-79
2024/03/17 08:53:21;;;;;;;4.10;2.67;;;17.00;99.90;;;;;;5016384;28;20635;-78
2024/03/17 08:55:47;;;;;;;3.33;2.20;;;16.80;99.90;;;;;;5029906;28;20599;-78
2024/03/17 08:58:17;;;;;;;4.00;2.57;;;16.60;99.90;;;;;;5019585;28;21196;-78
2024/03/17 09:00:43;;;;;;;3.63;3.07;;;16.20;99.90;;;;;;5029312;28;20685;-77
2024/03/17 09:03:10;;;;;;;3.97;3.13;;;15.80;99.90;;;;;;5009043;28;21418;-78
2024/03/17 09:05:36;;;;;;;4.97;2.90;;;15.40;99.90;;;;;;5008711;28;20596;-77
2024/03/17 09:08:03;;;;;;;3.77;2.80;;;15.10;99.90;;;;;;5034728;28;20662;-77
2024/03/17 09:10:28;;;;;;;4.43;3.13;;;14.80;99.90;;;;;;5013473;28;20584;-77
2024/03/17 09:12:54;;;;;;;4.57;3.13;;;14.80;99.90;;;;;;5032033;28;20584;-79
2024/03/17 09:15:20;;;;;;;5.00;3.10;;;15.00;99.90;;;;;;5032897;28;20610;-80
2024/03/17 09:17:46;;;;;;;3.83;2.63;;;15.20;99.90;;;;;;5014535;28;20178;-79
2024/03/17 09:20:14;;;;;;;3.30;3.00;;;15.40;99.90;;;;;;5019958;28;20589;-78
2024/03/17 09:22:43;;;;;;;3.73;2.70;;;15.50;99.90;;;;;;5011003;28;20659;-77
2024/03/17 09:25:09;;;;;;;4.83;2.53;;;15.50;99.90;;;;;;5012016;28;20617;-78
2024/03/17 09:27:38;;;;;;;5.50;2.80;;;15.40;99.90;;;;;;5037517;28;20609;-78
2024/03/17 09:30:11;;;;;;;4.17;3.00;;;15.20;99.90;;;;;;5026043;28;20655;-78
2024/03/17 09:32:37;;;;;;;3.63;2.30;;;15.00;99.90;;;;;;5028430;28;20657;-79
2024/03/17 09:35:04;;;;;;;5.43;3.27;;;14.80;99.90;;;;;;5022382;28;20612;-77
2024/03/17 09:37:31;;;;;;;3.20;2.57;;;14.70;99.90;;;;;;5018208;28;20620;-79
2024/03/17 09:40:00;;;;;;;3.90;2.70;;;14.60;99.90;;;;;;5026616;28;20647;-79
2024/03/17 09:42:27;;;;;;;3.27;2.07;;;14.50;99.90;;;;;;5037957;28;20592;-79
2024/03/17 09:44:56;;;;;;;3.70;2.70;;;14.60;99.90;;;;;;5022625;28;20662;-79
2024/03/17 09:47:24;;;;;;;4.50;2.37;;;14.70;99.90;;;;;;5028484;28;20620;-79
2024/03/17 09:49:50;;;;;;;5.47;2.53;;;14.80;99.90;;;;;;5029183;28;20603;-79
2024/03/17 09:52:24;;;;;;;3.93;2.60;;;15.00;99.90;;;;;;5037094;28;20593;-78
2024/03/17 09:55:09;;;;;;;4.20;2.77;;;15.20;99.90;;;;;;5013369;28;20642;-79
2024/03/17 09:57:36;;;;;;;3.13;1.87;;;15.40;99.90;;;;;;5029854;28;20600;-79
2024/03/17 10:00:12;;;;;;;3.13;2.20;;;15.70;99.90;;;;;;5047272;28;20672;-79
2024/03/17 10:02:45;;;;;;;4.80;2.50;;;16.20;99.90;;;;;;5028863;28;20600;-77
2024/03/17 10:05:25;;;;;;;5.20;2.00;;;16.70;99.90;;;;;;5029985;28;20626;-78
2024/03/17 10:07:51;;;;;;;3.27;1.90;;;17.10;99.90;;;;;;5025982;28;20686;-78
2024/03/17 10:10:21;;;;;;;3.03;2.20;;;17.40;99.90;;;;;;5034963;28;20683;-78
2024/03/17 10:12:51;;;;;;;3.70;1.87;;;17.50;99.90;;;;;;5030464;28;20596;-76
2024/03/17 10:15:17;;;;;;;3.53;2.20;;;17.40;99.90;;;;;;5033354;28;20675;-77
2024/03/17 10:17:44;;;;;;;7.40;1.90;;;17.40;99.90;;;;;;5023281;28;20593;-78
2024/03/17 10:20:23;;;;;;;2.53;1.80;;;17.30;99.90;;;;;;5031542;28;20592;-78
2024/03/17 10:23:09;;;;;;;4.00;2.40;;;17.10;99.90;;;;;;5022801;28;20609;-78
2024/03/17 10:25:39;;;;;;;3.53;2.43;;;16.80;99.90;;;;;;5005255;28;20624;-78
2024/03/17 10:28:11;;;;;;;3.87;2.63;;;16.60;99.90;;;;;;5019971;28;20652;-79
2024/03/17 10:30:40;;;;;;;3.83;2.00;;;16.50;99.90;;;;;;5012092;28;20651;-78
2024/03/17 10:33:11;;;;;;;3.30;2.07;;;16.50;99.90;;;;;;5026117;28;20680;-78
2024/03/17 10:35:41;;;;;;;3.77;2.10;;;16.60;99.90;;;;;;5020449;28;20595;-77
2024/03/17 10:38:12;;;;;;;3.77;2.80;;;16.80;99.90;;;;;;5021557;28;20606;-81
2024/03/17 10:40:42;;;;;;;5.00;1.77;;;17.00;99.90;;;;;;5029993;28;20707;-77
2024/03/17 10:43:10;;;;;;;2.70;1.83;;;17.30;99.90;;;;;;5031191;28;20635;-78
2024/03/17 10:45:38;;;;;;;2.73;1.60;;;17.50;99.90;;;;;;5013232;28;20628;-78
2024/03/17 10:48:08;;;;;;;3.03;1.87;;;17.50;99.90;;;;;;5034780;28;20619;-77
2024/03/17 10:50:39;;;;;;;6.40;2.10;;;17.60;99.90;;;;;;5014445;28;20629;-77
2024/03/17 10:53:08;;;;;;;3.80;1.80;;;17.80;99.90;;;;;;5029874;28;20731;-76
2024/03/17 10:55:43;;;;;;;3.83;2.07;;;17.90;99.90;;;;;;5046673;28;20588;-77
2024/03/17 10:58:35;;;;;;;4.80;2.10;;;18.00;99.90;;;;;;4998879;28;20623;-77
2024/03/17 11:01:07;;;;;;;3.23;1.30;;;18.30;99.90;;;;;;5046622;28;20588;-76
2024/03/17 11:03:34;;;;;;;3.20;1.53;;;18.60;99.90;;;;;;5013322;28;20744;-76
2024/03/17 11:06:03;;;;;;;2.60;1.87;;;18.80;99.90;;;;;;5021538;28;21135;-77
2024/03/17 11:08:32;;;;;;;2.30;1.50;;;18.90;99.90;;;;;;5022372;28;20679;-77
2024/03/17 11:10:58;;;;;;;4.73;1.40;;;18.80;99.90;;;;;;5009829;28;20948;-76
2024/03/17 11:13:31;;;;;;;2.40;1.50;;;19.00;99.90;;;;;;5025176;28;20615;-76
2024/03/17 11:15:58;;;;;;;2.40;1.40;;;19.20;99.90;;;;;;5014300;28;20196;-77
2024/03/17 11:18:24;;;;;;;3.10;1.37;;;19.30;99.90;;;;;;5031008;28;21181;-78
2024/03/17 11:21:11;;;;;;;4.20;1.37;;;19.50;99.90;;;;;;4995082;28;20589;-77
2024/03/17 11:23:38;;;;;;;4.17;1.20;;;19.50;99.90;;;;;;5025668;28;20214;-77
2024/03/17 11:26:05;;;;;;;2.80;1.60;;;19.70;99.90;;;;;;5025315;28;20584;-77
2024/03/17 11:28:53;;;;;;;2.83;1.30;;;19.90;99.90;;;;;;5021040;28;20650;-77
2024/03/17 11:31:40;;;;;;;3.43;2.10;;;20.30;99.90;;;;;;5033270;28;20651;-77
2024/03/17 11:34:25;;;;;;;2.17;1.47;;;20.30;99.90;;;;;;5020945;28;20635;-77
2024/03/17 11:36:51;;;;;;;3.57;1.70;;;20.30;99.90;;;;;;5028040;28;20609;-78
2024/03/17 11:39:21;;;;;;;3.50;1.90;;;20.30;99.90;;;;;;5024439;28;20646;-75
2024/03/17 11:41:48;;;;;;;3.23;2.00;;;20.20;99.90;;;;;;5019530;28;20679;-77
2024/03/17 11:44:27;;;;;;;3.20;1.87;;;20.10;99.90;;;;;;5016813;28;20663;-76
2024/03/17 11:46:58;;;;;;;3.50;2.50;;;19.90;99.90;;;;;;5012577;28;20700;-76
2024/03/17 11:49:33;;;;;;;5.27;3.37;;;19.80;99.90;;;;;;5023430;28;20607;-76
2024/03/17 11:52:01;;;;;;;4.07;2.90;;;19.60;99.90;;;;;;5021307;28;20608;-77
2024/03/17 11:54:29;;;;;;;4.40;2.57;;;19.40;99.90;;;;;;5029095;28;20674;-78
2024/03/17 11:57:00;;;;;;;5.03;2.70;;;19.20;99.90;;;;;;5036168;28;20630;-77
2024/03/17 11:59:26;;;;;;;5.97;2.57;;;18.90;99.90;;;;;;5016748;28;20627;-78
2024/03/17 12:01:52;;;;;;;3.27;2.13;;;18.80;99.90;;;;;;5022001;28;20627;-77
2024/03/17 12:04:20;;;;;;;3.90;2.03;;;18.70;99.90;;;;;;5015854;28;20206;-77
2024/03/17 12:06:47;;;;;;;2.57;1.30;;;18.60;99.90;;;;;;5033677;28;20652;-78
2024/03/17 12:09:28;;;;;;;2.47;1.60;;;18.60;99.90;;;;;;4998222;28;20604;-78
2024/03/17 12:12:03;;;;;;;3.37;1.70;;;18.60;99.90;;;;;;5026701;28;20624;-78
2024/03/17 12:14:30;;;;;;;3.73;2.87;;;18.50;99.90;;;;;;5014050;28;21019;-78
2024/03/17 12:17:03;;;;;;;3.20;1.90;;;18.40;99.90;;;;;;5021940;28;21005;-79
2024/03/17 12:19:29;;;;;;;4.27;2.20;;;18.30;99.90;;;;;;5014082;28;20623;-79
2024/03/17 12:21:57;;;;;;;4.30;3.43;;;18.20;99.90;;;;;;5028461;28;20593;-78
2024/03/17 12:24:25;;;;;;;5.07;2.73;;;18.20;99.90;;;;;;5011959;28;21445;-79
2024/03/17 12:26:59;;;;;;;4.90;2.70;;;18.00;99.90;;;;;;5022577;28;20592;-79
2024/03/17 12:29:32;;;;;;;3.80;2.13;;;17.80;99.90;;;;;;5036294;28;20700;-79
2024/03/17 12:32:06;;;;;;;5.40;2.67;;;17.80;99.90;;;;;;5032104;28;20955;-78
2024/03/17 12:34:34;;;;;;;2.93;2.00;;;17.80;99.90;;;;;;5032181;28;20623;-79
2024/03/17 12:37:00;;;;;;;4.23;1.73;;;17.70;99.90;;;;;;5047802;28;20650;-79
2024/03/17 12:39:28;;;;;;;3.00;2.17;;;17.70;99.90;;;;;;5042949;28;20588;-79
2024/03/17 12:42:06;;;;;;;3.23;1.77;;;17.70;99.90;;;;;;5048513;28;20593;-79
2024/03/17 12:44:34;;;;;;;2.33;1.80;;;17.70;99.90;;;;;;5035137;28;20650;-78
2024/03/17 12:47:02;;;;;;;5.90;2.33;;;17.80;99.90;;;;;;5000587;28;21003;-78
2024/03/17 12:49:34;;;;;;;2.53;1.70;;;17.80;99.90;;;;;;5035599;28;20676;-79
2024/03/17 12:52:03;;;;;;;3.00;1.70;;;17.80;99.90;;;;;;5030688;28;20592;-78
2024/03/17 12:54:30;;;;;;;3.67;2.63;;;17.70;99.90;;;;;;5033398;28;21013;-78
2024/03/17 13:00:38;;;;;;;3.43;2.30;;;17.50;99.90;;;;;;5033290;28;20646;-78
2024/03/17 13:02:43;;;;;;;3.47;1.90;;;17.60;99.90;;;;;;5025790;28;20629;-77